sensor_id;sensor_type;location;lat;lon;timestamp;temperature;humidity
6377;DHT22;3221;48.858;10.128;2023-07-09T00:02:01;22.20;83.20
6377;DHT22;3221;48.858;10.128;2023-07-09T00:04:28;22.20;83.40
6377;DHT22;3221;48.858;10.128;2023-07-09T00:06:59;22.20;83.50
6377;DHT22;3221;48.858;10.128;2023-07-09T00:09:27;22.10;83.60
6377;DHT22;3221;48.858;10.128;2023-07-09T00:11:54;22.10;83.40
6377;DHT22;3221;48.858;10.128;2023-07-09T00:14:20;22.10;83.30
6377;DHT22;3221;48.858;10.128;2023-07-09T00:16:48;22.10;83.40
6377;DHT22;3221;48.858;10.128;2023-07-09T00:19:20;22.00;83.40
6377;DHT22;3221;48.858;10.128;2023-07-09T00:21:51;22.10;83.40
6377;DHT22;3221;48.858;10.128;2023-07-09T00:24:21;22.00;83.30
6377;DHT22;3221;48.858;10.128;2023-07-09T00:26:49;22.10;83.70
6377;DHT22;3221;48.858;10.128;2023-07-09T00:29:17;22.10;83.80
6377;DHT22;3221;48.858;10.128;2023-07-09T00:31:44;22.10;83.80
6377;DHT22;3221;48.858;10.128;2023-07-09T00:34:13;22.10;84.20
6377;DHT22;3221;48.858;10.128;2023-07-09T00:36:42;22.00;83.20
6377;DHT22;3221;48.858;10.128;2023-07-09T00:39:22;22.00;83.30
6377;DHT22;3221;48.858;10.128;2023-07-09T00:41:50;22.00;83.90
6377;DHT22;3221;48.858;10.128;2023-07-09T00:49:26;21.90;84.90
6377;DHT22;3221;48.858;10.128;2023-07-09T00:51:53;21.80;85.10
6377;DHT22;3221;48.858;10.128;2023-07-09T00:54:30;21.80;85.60
6377;DHT22;3221;48.858;10.128;2023-07-09T00:57:03;21.80;85.60
6377;DHT22;3221;48.858;10.128;2023-07-09T00:59:33;21.70;85.00
6377;DHT22;3221;48.858;10.128;2023-07-09T01:02:00;21.80;84.90
6377;DHT22;3221;48.858;10.128;2023-07-09T01:04:28;21.80;85.30
6377;DHT22;3221;48.858;10.128;2023-07-09T01:06:56;21.80;85.00
6377;DHT22;3221;48.858;10.128;2023-07-09T01:09:24;21.80;84.60
6377;DHT22;3221;48.858;10.128;2023-07-09T01:11:52;21.90;85.50
6377;DHT22;3221;48.858;10.128;2023-07-09T01:14:24;21.80;84.90
6377;DHT22;3221;48.858;10.128;2023-07-09T01:16:55;21.80;85.20
6377;DHT22;3221;48.858;10.128;2023-07-09T01:19:27;21.80;85.70
6377;DHT22;3221;48.858;10.128;2023-07-09T01:22:00;21.80;85.70
6377;DHT22;3221;48.858;10.128;2023-07-09T01:24:53;21.80;85.80
6377;DHT22;3221;48.858;10.128;2023-07-09T01:27:50;21.70;86.40
6377;DHT22;3221;48.858;10.128;2023-07-09T01:30:35;21.60;86.40
6377;DHT22;3221;48.858;10.128;2023-07-09T01:33:03;21.60;86.10
6377;DHT22;3221;48.858;10.128;2023-07-09T01:35:35;21.60;86.80
6377;DHT22;3221;48.858;10.128;2023-07-09T01:38:03;21.60;87.10
6377;DHT22;3221;48.858;10.128;2023-07-09T01:40:35;21.50;87.90
6377;DHT22;3221;48.858;10.128;2023-07-09T01:43:06;21.30;88.30
6377;DHT22;3221;48.858;10.128;2023-07-09T01:45:34;21.30;87.30
6377;DHT22;3221;48.858;10.128;2023-07-09T01:48:02;21.40;87.90
6377;DHT22;3221;48.858;10.128;2023-07-09T01:50:29;21.40;88.20
6377;DHT22;3221;48.858;10.128;2023-07-09T01:52:57;21.40;87.80
6377;DHT22;3221;48.858;10.128;2023-07-09T01:55:24;21.40;87.90
6377;DHT22;3221;48.858;10.128;2023-07-09T01:57:51;21.50;88.40
6377;DHT22;3221;48.858;10.128;2023-07-09T02:00:19;21.50;87.30
6377;DHT22;3221;48.858;10.128;2023-07-09T02:02:47;21.50;88.00
6377;DHT22;3221;48.858;10.128;2023-07-09T02:05:18;21.60;88.40
6377;DHT22;3221;48.858;10.128;2023-07-09T02:07:46;21.50;88.40
6377;DHT22;3221;48.858;10.128;2023-07-09T02:10:16;21.50;87.50
6377;DHT22;3221;48.858;10.128;2023-07-09T02:12:44;21.50;87.70
6377;DHT22;3221;48.858;10.128;2023-07-09T02:15:11;21.40;88.30
6377;DHT22;3221;48.858;10.128;2023-07-09T02:17:38;21.40;88.60
6377;DHT22;3221;48.858;10.128;2023-07-09T02:20:06;21.40;88.60
6377;DHT22;3221;48.858;10.128;2023-07-09T02:22:34;21.30;88.50
6377;DHT22;3221;48.858;10.128;2023-07-09T02:25:02;21.30;89.00
6377;DHT22;3221;48.858;10.128;2023-07-09T02:27:29;21.30;88.70
6377;DHT22;3221;48.858;10.128;2023-07-09T02:29:56;21.30;89.30
6377;DHT22;3221;48.858;10.128;2023-07-09T02:32:25;21.30;89.00
6377;DHT22;3221;48.858;10.128;2023-07-09T02:34:53;21.30;89.00
6377;DHT22;3221;48.858;10.128;2023-07-09T02:37:24;21.20;88.90
6377;DHT22;3221;48.858;10.128;2023-07-09T02:39:51;21.20;89.50
6377;DHT22;3221;48.858;10.128;2023-07-09T02:42:20;21.20;89.50
6377;DHT22;3221;48.858;10.128;2023-07-09T02:44:48;21.20;89.50
6377;DHT22;3221;48.858;10.128;2023-07-09T02:47:16;21.20;89.80
6377;DHT22;3221;48.858;10.128;2023-07-09T02:49:44;21.20;89.10
6377;DHT22;3221;48.858;10.128;2023-07-09T02:52:11;21.20;89.40
6377;DHT22;3221;48.858;10.128;2023-07-09T02:54:38;21.10;89.50
6377;DHT22;3221;48.858;10.128;2023-07-09T02:57:06;21.10;90.10
6377;DHT22;3221;48.858;10.128;2023-07-09T02:59:33;21.10;90.00
6377;DHT22;3221;48.858;10.128;2023-07-09T03:02:01;21.10;90.10
6377;DHT22;3221;48.858;10.128;2023-07-09T03:04:28;21.10;90.20
6377;DHT22;3221;48.858;10.128;2023-07-09T03:06:55;21.10;90.10
6377;DHT22;3221;48.858;10.128;2023-07-09T03:09:22;21.10;90.10
6377;DHT22;3221;48.858;10.128;2023-07-09T03:11:49;21.10;90.00
6377;DHT22;3221;48.858;10.128;2023-07-09T03:14:16;21.00;90.10
6377;DHT22;3221;48.858;10.128;2023-07-09T03:16:44;21.00;90.10
6377;DHT22;3221;48.858;10.128;2023-07-09T03:19:11;21.00;90.30
6377;DHT22;3221;48.858;10.128;2023-07-09T03:21:38;21.00;90.30
6377;DHT22;3221;48.858;10.128;2023-07-09T03:24:05;21.00;90.10
6377;DHT22;3221;48.858;10.128;2023-07-09T03:26:33;21.00;90.20
6377;DHT22;3221;48.858;10.128;2023-07-09T03:28:59;21.00;90.30
6377;DHT22;3221;48.858;10.128;2023-07-09T03:31:26;20.90;90.00
6377;DHT22;3221;48.858;10.128;2023-07-09T03:33:53;20.90;90.00
6377;DHT22;3221;48.858;10.128;2023-07-09T03:36:20;20.90;90.40
6377;DHT22;3221;48.858;10.128;2023-07-09T03:38:47;20.90;90.70
6377;DHT22;3221;48.858;10.128;2023-07-09T03:41:15;20.90;90.60
6377;DHT22;3221;48.858;10.128;2023-07-09T03:43:43;20.90;90.50
6377;DHT22;3221;48.858;10.128;2023-07-09T03:46:10;20.80;90.40
6377;DHT22;3221;48.858;10.128;2023-07-09T03:48:37;20.80;90.50
6377;DHT22;3221;48.858;10.128;2023-07-09T03:51:04;20.80;90.60
6377;DHT22;3221;48.858;10.128;2023-07-09T03:53:31;20.80;90.50
6377;DHT22;3221;48.858;10.128;2023-07-09T03:55:58;20.80;90.60
6377;DHT22;3221;48.858;10.128;2023-07-09T03:58:27;20.80;90.70
6377;DHT22;3221;48.858;10.128;2023-07-09T04:00:54;20.90;90.60
6377;DHT22;3221;48.858;10.128;2023-07-09T04:03:22;20.90;90.80
6377;DHT22;3221;48.858;10.128;2023-07-09T04:05:49;20.90;90.80
6377;DHT22;3221;48.858;10.128;2023-07-09T04:08:16;20.90;90.80
6377;DHT22;3221;48.858;10.128;2023-07-09T04:10:43;20.90;91.00
6377;DHT22;3221;48.858;10.128;2023-07-09T04:13:10;20.80;91.00
6377;DHT22;3221;48.858;10.128;2023-07-09T04:15:37;20.80;91.00
6377;DHT22;3221;48.858;10.128;2023-07-09T04:18:04;20.80;91.20
6377;DHT22;3221;48.858;10.128;2023-07-09T04:20:31;20.70;91.20
6377;DHT22;3221;48.858;10.128;2023-07-09T04:22:58;20.70;91.20
6377;DHT22;3221;48.858;10.128;2023-07-09T04:25:24;20.70;91.20
6377;DHT22;3221;48.858;10.128;2023-07-09T04:27:51;20.80;91.30
6377;DHT22;3221;48.858;10.128;2023-07-09T04:30:18;20.70;91.40
6377;DHT22;3221;48.858;10.128;2023-07-09T04:32:46;20.70;91.40
6377;DHT22;3221;48.858;10.128;2023-07-09T04:35:14;20.70;91.50
6377;DHT22;3221;48.858;10.128;2023-07-09T04:37:41;20.70;91.60
6377;DHT22;3221;48.858;10.128;2023-07-09T04:40:10;20.70;91.50
6377;DHT22;3221;48.858;10.128;2023-07-09T04:42:39;20.70;91.30
6377;DHT22;3221;48.858;10.128;2023-07-09T04:45:08;20.70;91.40
6377;DHT22;3221;48.858;10.128;2023-07-09T04:47:36;20.80;91.40
6377;DHT22;3221;48.858;10.128;2023-07-09T04:50:07;20.80;91.30
6377;DHT22;3221;48.858;10.128;2023-07-09T04:52:34;20.80;91.60
6377;DHT22;3221;48.858;10.128;2023-07-09T04:55:02;20.70;91.70
6377;DHT22;3221;48.858;10.128;2023-07-09T04:57:29;20.70;91.90
6377;DHT22;3221;48.858;10.128;2023-07-09T04:59:56;20.70;92.00
6377;DHT22;3221;48.858;10.128;2023-07-09T05:02:23;20.70;92.00
6377;DHT22;3221;48.858;10.128;2023-07-09T05:04:50;20.70;92.10
6377;DHT22;3221;48.858;10.128;2023-07-09T05:07:17;20.80;92.00
6377;DHT22;3221;48.858;10.128;2023-07-09T05:09:44;20.80;92.20
6377;DHT22;3221;48.858;10.128;2023-07-09T05:12:11;20.80;92.00
6377;DHT22;3221;48.858;10.128;2023-07-09T05:14:38;20.80;91.30
6377;DHT22;3221;48.858;10.128;2023-07-09T05:17:06;20.90;91.40
6377;DHT22;3221;48.858;10.128;2023-07-09T05:19:36;20.90;91.50
6377;DHT22;3221;48.858;10.128;2023-07-09T05:22:03;20.90;90.90
6377;DHT22;3221;48.858;10.128;2023-07-09T05:24:30;21.00;90.30
6377;DHT22;3221;48.858;10.128;2023-07-09T05:26:57;21.10;90.10
6377;DHT22;3221;48.858;10.128;2023-07-09T05:29:25;21.10;89.90
6377;DHT22;3221;48.858;10.128;2023-07-09T05:31:52;21.10;89.50
6377;DHT22;3221;48.858;10.128;2023-07-09T05:34:19;21.10;90.90
6377;DHT22;3221;48.858;10.128;2023-07-09T05:36:45;21.20;93.00
6377;DHT22;3221;48.858;10.128;2023-07-09T05:39:13;21.30;94.40
6377;DHT22;3221;48.858;10.128;2023-07-09T05:41:40;21.30;93.00
6377;DHT22;3221;48.858;10.128;2023-07-09T05:44:06;21.40;92.70
6377;DHT22;3221;48.858;10.128;2023-07-09T05:46:35;21.40;91.00
6377;DHT22;3221;48.858;10.128;2023-07-09T05:49:04;21.50;91.10
6377;DHT22;3221;48.858;10.128;2023-07-09T05:51:32;21.50;91.20
6377;DHT22;3221;48.858;10.128;2023-07-09T05:53:59;21.50;90.90
6377;DHT22;3221;48.858;10.128;2023-07-09T05:56:26;21.50;91.00
6377;DHT22;3221;48.858;10.128;2023-07-09T05:58:53;21.70;93.00
6377;DHT22;3221;48.858;10.128;2023-07-09T06:01:20;21.70;94.20
6377;DHT22;3221;48.858;10.128;2023-07-09T06:03:47;21.80;92.80
6377;DHT22;3221;48.858;10.128;2023-07-09T06:06:15;21.90;93.10
6377;DHT22;3221;48.858;10.128;2023-07-09T06:08:43;21.90;92.50
6377;DHT22;3221;48.858;10.128;2023-07-09T06:11:09;21.90;92.30
6377;DHT22;3221;48.858;10.128;2023-07-09T06:13:36;22.10;91.60
6377;DHT22;3221;48.858;10.128;2023-07-09T06:16:04;22.20;91.80
6377;DHT22;3221;48.858;10.128;2023-07-09T06:18:32;22.20;92.60
6377;DHT22;3221;48.858;10.128;2023-07-09T06:21:01;22.20;92.60
6377;DHT22;3221;48.858;10.128;2023-07-09T06:23:29;22.40;91.50
6377;DHT22;3221;48.858;10.128;2023-07-09T06:25:57;22.50;91.50
6377;DHT22;3221;48.858;10.128;2023-07-09T06:28:26;22.50;91.70
6377;DHT22;3221;48.858;10.128;2023-07-09T06:30:56;22.70;92.50
6377;DHT22;3221;48.858;10.128;2023-07-09T06:33:24;22.70;91.80
6377;DHT22;3221;48.858;10.128;2023-07-09T06:36:00;22.80;92.80
6377;DHT22;3221;48.858;10.128;2023-07-09T06:38:28;22.70;92.30
6377;DHT22;3221;48.858;10.128;2023-07-09T06:40:56;22.80;92.50
6377;DHT22;3221;48.858;10.128;2023-07-09T06:43:24;22.90;92.80
6377;DHT22;3221;48.858;10.128;2023-07-09T06:45:57;22.90;93.10
6377;DHT22;3221;48.858;10.128;2023-07-09T06:48:26;22.80;92.90
6377;DHT22;3221;48.858;10.128;2023-07-09T06:50:56;23.00;92.90
6377;DHT22;3221;48.858;10.128;2023-07-09T06:53:24;23.00;92.70
6377;DHT22;3221;48.858;10.128;2023-07-09T06:55:52;23.00;92.70
6377;DHT22;3221;48.858;10.128;2023-07-09T06:58:23;23.20;93.80
6377;DHT22;3221;48.858;10.128;2023-07-09T07:00:52;23.30;93.20
6377;DHT22;3221;48.858;10.128;2023-07-09T07:03:19;23.40;92.80
6377;DHT22;3221;48.858;10.128;2023-07-09T07:05:50;23.60;91.90
6377;DHT22;3221;48.858;10.128;2023-07-09T07:08:18;23.80;91.60
6377;DHT22;3221;48.858;10.128;2023-07-09T07:10:47;23.80;91.20
6377;DHT22;3221;48.858;10.128;2023-07-09T07:13:14;23.90;91.40
6377;DHT22;3221;48.858;10.128;2023-07-09T07:15:44;23.90;91.30
6377;DHT22;3221;48.858;10.128;2023-07-09T07:18:11;23.90;91.50
6377;DHT22;3221;48.858;10.128;2023-07-09T07:20:38;24.00;91.20
6377;DHT22;3221;48.858;10.128;2023-07-09T07:23:04;24.10;91.00
6377;DHT22;3221;48.858;10.128;2023-07-09T07:25:32;24.20;91.20
6377;DHT22;3221;48.858;10.128;2023-07-09T07:27:59;24.10;91.10
6377;DHT22;3221;48.858;10.128;2023-07-09T07:30:26;24.00;91.30
6377;DHT22;3221;48.858;10.128;2023-07-09T07:32:53;24.30;91.10
6377;DHT22;3221;48.858;10.128;2023-07-09T07:35:20;24.40;91.20
6377;DHT22;3221;48.858;10.128;2023-07-09T07:37:47;24.40;91.00
6377;DHT22;3221;48.858;10.128;2023-07-09T07:40:14;24.50;90.90
6377;DHT22;3221;48.858;10.128;2023-07-09T07:42:41;24.60;90.70
6377;DHT22;3221;48.858;10.128;2023-07-09T07:45:08;24.70;90.50
6377;DHT22;3221;48.858;10.128;2023-07-09T07:47:35;24.70;90.70
6377;DHT22;3221;48.858;10.128;2023-07-09T07:50:05;24.80;89.10
6377;DHT22;3221;48.858;10.128;2023-07-09T07:52:32;24.80;87.70
6377;DHT22;3221;48.858;10.128;2023-07-09T07:54:59;24.90;87.70
6377;DHT22;3221;48.858;10.128;2023-07-09T07:57:27;24.90;88.00
6377;DHT22;3221;48.858;10.128;2023-07-09T07:59:54;25.00;87.80
6377;DHT22;3221;48.858;10.128;2023-07-09T08:02:21;25.10;88.20
6377;DHT22;3221;48.858;10.128;2023-07-09T08:04:48;25.10;87.20
6377;DHT22;3221;48.858;10.128;2023-07-09T08:07:14;25.20;86.80
6377;DHT22;3221;48.858;10.128;2023-07-09T08:09:41;25.10;86.70
6377;DHT22;3221;48.858;10.128;2023-07-09T08:12:09;25.20;87.30
6377;DHT22;3221;48.858;10.128;2023-07-09T08:14:44;25.20;86.90
6377;DHT22;3221;48.858;10.128;2023-07-09T08:17:11;25.30;86.80
6377;DHT22;3221;48.858;10.128;2023-07-09T08:19:46;25.40;87.40
6377;DHT22;3221;48.858;10.128;2023-07-09T08:22:14;25.40;88.00
6377;DHT22;3221;48.858;10.128;2023-07-09T08:24:42;25.50;87.60
6377;DHT22;3221;48.858;10.128;2023-07-09T08:27:09;25.60;87.10
6377;DHT22;3221;48.858;10.128;2023-07-09T08:29:36;25.60;87.00
6377;DHT22;3221;48.858;10.128;2023-07-09T08:32:04;25.70;86.10
6377;DHT22;3221;48.858;10.128;2023-07-09T08:34:31;25.70;86.20
6377;DHT22;3221;48.858;10.128;2023-07-09T08:36:57;25.70;86.00
6377;DHT22;3221;48.858;10.128;2023-07-09T08:39:24;25.80;85.80
6377;DHT22;3221;48.858;10.128;2023-07-09T08:42:10;25.80;84.90
6377;DHT22;3221;48.858;10.128;2023-07-09T08:48:03;26.00;84.30
6377;DHT22;3221;48.858;10.128;2023-07-09T08:50:35;26.00;84.60
6377;DHT22;3221;48.858;10.128;2023-07-09T08:53:05;26.10;83.60
6377;DHT22;3221;48.858;10.128;2023-07-09T08:55:33;26.10;83.70
6377;DHT22;3221;48.858;10.128;2023-07-09T08:58:14;26.10;83.50
6377;DHT22;3221;48.858;10.128;2023-07-09T09:00:49;26.40;82.40
6377;DHT22;3221;48.858;10.128;2023-07-09T09:03:38;26.40;79.40
6377;DHT22;3221;48.858;10.128;2023-07-09T09:06:25;26.40;80.60
6377;DHT22;3221;48.858;10.128;2023-07-09T09:11:44;26.40;81.70
6377;DHT22;3221;48.858;10.128;2023-07-09T09:16:49;26.70;81.20
6377;DHT22;3221;48.858;10.128;2023-07-09T09:22:13;26.80;79.30
6377;DHT22;3221;48.858;10.128;2023-07-09T09:27:33;26.70;80.10
6377;DHT22;3221;48.858;10.128;2023-07-09T09:30:00;26.70;79.30
6377;DHT22;3221;48.858;10.128;2023-07-09T09:32:43;26.60;79.70
6377;DHT22;3221;48.858;10.128;2023-07-09T09:35:17;26.50;80.20
6377;DHT22;3221;48.858;10.128;2023-07-09T09:37:50;26.60;79.30
6377;DHT22;3221;48.858;10.128;2023-07-09T09:40:19;26.80;79.20
6377;DHT22;3221;48.858;10.128;2023-07-09T09:42:53;26.90;78.40
6377;DHT22;3221;48.858;10.128;2023-07-09T09:45:25;27.10;77.30
6377;DHT22;3221;48.858;10.128;2023-07-09T09:47:57;27.10;77.20
6377;DHT22;3221;48.858;10.128;2023-07-09T09:50:32;27.10;76.30
6377;DHT22;3221;48.858;10.128;2023-07-09T09:53:00;27.20;76.90
6377;DHT22;3221;48.858;10.128;2023-07-09T09:55:30;27.20;77.30
6377;DHT22;3221;48.858;10.128;2023-07-09T09:57:58;27.30;76.40
6377;DHT22;3221;48.858;10.128;2023-07-09T10:00:27;27.40;76.60
6377;DHT22;3221;48.858;10.128;2023-07-09T10:03:00;27.40;77.60
6377;DHT22;3221;48.858;10.128;2023-07-09T10:05:36;27.50;77.80
6377;DHT22;3221;48.858;10.128;2023-07-09T10:08:13;27.60;77.90
6377;DHT22;3221;48.858;10.128;2023-07-09T10:10:44;27.70;77.20
6377;DHT22;3221;48.858;10.128;2023-07-09T10:13:28;27.70;76.60
6377;DHT22;3221;48.858;10.128;2023-07-09T10:16:01;27.70;77.00
6377;DHT22;3221;48.858;10.128;2023-07-09T10:18:53;27.70;77.30
6377;DHT22;3221;48.858;10.128;2023-07-09T10:21:46;27.80;77.40
6377;DHT22;3221;48.858;10.128;2023-07-09T10:24:37;27.90;76.20
6377;DHT22;3221;48.858;10.128;2023-07-09T10:27:27;28.10;72.90
6377;DHT22;3221;48.858;10.128;2023-07-09T10:33:10;28.10;73.20
6377;DHT22;3221;48.858;10.128;2023-07-09T10:35:49;28.10;73.10
6377;DHT22;3221;48.858;10.128;2023-07-09T10:41:09;28.00;74.20
6377;DHT22;3221;48.858;10.128;2023-07-09T10:44:00;28.10;74.10
6377;DHT22;3221;48.858;10.128;2023-07-09T10:46:31;28.30;73.90
6377;DHT22;3221;48.858;10.128;2023-07-09T10:49:00;28.40;74.10
6377;DHT22;3221;48.858;10.128;2023-07-09T10:51:33;28.40;73.50
6377;DHT22;3221;48.858;10.128;2023-07-09T10:54:34;28.50;73.40
6377;DHT22;3221;48.858;10.128;2023-07-09T10:57:11;28.60;72.70
6377;DHT22;3221;48.858;10.128;2023-07-09T10:59:40;28.70;71.70
6377;DHT22;3221;48.858;10.128;2023-07-09T11:04:58;28.80;70.70
6377;DHT22;3221;48.858;10.128;2023-07-09T11:07:41;28.90;71.80
6377;DHT22;3221;48.858;10.128;2023-07-09T11:13:09;28.70;72.30
6377;DHT22;3221;48.858;10.128;2023-07-09T11:15:41;28.60;73.40
6377;DHT22;3221;48.858;10.128;2023-07-09T11:18:15;28.80;71.00
6377;DHT22;3221;48.858;10.128;2023-07-09T11:20:45;28.70;72.00
6377;DHT22;3221;48.858;10.128;2023-07-09T11:23:23;28.70;71.40
6377;DHT22;3221;48.858;10.128;2023-07-09T11:26:29;28.70;72.20
6377;DHT22;3221;48.858;10.128;2023-07-09T11:29:14;28.70;72.10
6377;DHT22;3221;48.858;10.128;2023-07-09T11:31:44;28.90;70.30
6377;DHT22;3221;48.858;10.128;2023-07-09T11:39:28;29.20;66.40
6377;DHT22;3221;48.858;10.128;2023-07-09T11:41:56;29.20;67.90
6377;DHT22;3221;48.858;10.128;2023-07-09T11:44:28;29.20;67.20
6377;DHT22;3221;48.858;10.128;2023-07-09T11:49:51;29.50;67.30
6377;DHT22;3221;48.858;10.128;2023-07-09T11:52:33;29.60;67.50
6377;DHT22;3221;48.858;10.128;2023-07-09T11:57:58;29.60;66.60
6377;DHT22;3221;48.858;10.128;2023-07-09T12:00:28;29.60;66.50
6377;DHT22;3221;48.858;10.128;2023-07-09T12:02:56;29.60;67.10
6377;DHT22;3221;48.858;10.128;2023-07-09T12:05:28;29.70;65.70
6377;DHT22;3221;48.858;10.128;2023-07-09T12:07:56;29.70;65.70
6377;DHT22;3221;48.858;10.128;2023-07-09T12:10:28;29.70;66.80
6377;DHT22;3221;48.858;10.128;2023-07-09T12:12:59;29.60;66.00
6377;DHT22;3221;48.858;10.128;2023-07-09T12:15:28;29.70;65.20
6377;DHT22;3221;48.858;10.128;2023-07-09T12:18:03;29.90;64.80
6377;DHT22;3221;48.858;10.128;2023-07-09T12:20:36;30.00;64.90
6377;DHT22;3221;48.858;10.128;2023-07-09T12:23:32;29.80;65.30
6377;DHT22;3221;48.858;10.128;2023-07-09T12:26:00;29.90;65.50
6377;DHT22;3221;48.858;10.128;2023-07-09T12:28:29;30.10;64.20
6377;DHT22;3221;48.858;10.128;2023-07-09T12:30:56;30.10;63.70
6377;DHT22;3221;48.858;10.128;2023-07-09T12:33:26;30.10;63.70
6377;DHT22;3221;48.858;10.128;2023-07-09T12:35:59;30.00;64.20
6377;DHT22;3221;48.858;10.128;2023-07-09T12:38:29;29.80;65.80
6377;DHT22;3221;48.858;10.128;2023-07-09T12:41:00;29.80;64.10
6377;DHT22;3221;48.858;10.128;2023-07-09T12:43:30;29.80;66.60
6377;DHT22;3221;48.858;10.128;2023-07-09T12:45:59;30.00;64.30
6377;DHT22;3221;48.858;10.128;2023-07-09T12:48:28;30.20;63.50
6377;DHT22;3221;48.858;10.128;2023-07-09T12:50:59;30.20;62.80
6377;DHT22;3221;48.858;10.128;2023-07-09T12:53:28;30.20;63.70
6377;DHT22;3221;48.858;10.128;2023-07-09T12:55:58;30.20;64.40
6377;DHT22;3221;48.858;10.128;2023-07-09T12:58:29;30.20;63.90
6377;DHT22;3221;48.858;10.128;2023-07-09T13:00:57;30.30;61.60
6377;DHT22;3221;48.858;10.128;2023-07-09T13:03:30;30.10;63.30
6377;DHT22;3221;48.858;10.128;2023-07-09T13:06:02;30.20;61.20
6377;DHT22;3221;48.858;10.128;2023-07-09T13:08:33;30.30;61.20
6377;DHT22;3221;48.858;10.128;2023-07-09T13:11:17;30.20;62.30
6377;DHT22;3221;48.858;10.128;2023-07-09T13:13:58;30.10;63.10
6377;DHT22;3221;48.858;10.128;2023-07-09T13:16:26;30.00;61.00
6377;DHT22;3221;48.858;10.128;2023-07-09T13:18:54;30.10;61.70
6377;DHT22;3221;48.858;10.128;2023-07-09T13:21:22;30.10;63.70
6377;DHT22;3221;48.858;10.128;2023-07-09T13:23:49;30.20;63.80
6377;DHT22;3221;48.858;10.128;2023-07-09T13:26:17;30.40;61.60
6377;DHT22;3221;48.858;10.128;2023-07-09T13:28:44;30.50;61.70
6377;DHT22;3221;48.858;10.128;2023-07-09T13:33:39;30.40;59.60
6377;DHT22;3221;48.858;10.128;2023-07-09T13:36:06;30.40;60.70
6377;DHT22;3221;48.858;10.128;2023-07-09T13:38:34;30.30;59.80
6377;DHT22;3221;48.858;10.128;2023-07-09T13:41:13;30.40;61.10
6377;DHT22;3221;48.858;10.128;2023-07-09T13:43:44;30.40;61.90
6377;DHT22;3221;48.858;10.128;2023-07-09T13:46:12;30.40;60.60
6377;DHT22;3221;48.858;10.128;2023-07-09T13:48:40;30.50;61.30
6377;DHT22;3221;48.858;10.128;2023-07-09T13:51:16;30.40;61.90
6377;DHT22;3221;48.858;10.128;2023-07-09T13:53:44;30.50;59.70
6377;DHT22;3221;48.858;10.128;2023-07-09T13:56:11;30.60;60.80
6377;DHT22;3221;48.858;10.128;2023-07-09T13:58:38;30.70;61.90
6377;DHT22;3221;48.858;10.128;2023-07-09T14:01:17;30.60;62.00
6377;DHT22;3221;48.858;10.128;2023-07-09T14:03:45;30.70;61.20
6377;DHT22;3221;48.858;10.128;2023-07-09T14:06:13;30.80;59.50
6377;DHT22;3221;48.858;10.128;2023-07-09T14:08:41;30.80;59.30
6377;DHT22;3221;48.858;10.128;2023-07-09T14:11:12;30.90;60.00
6377;DHT22;3221;48.858;10.128;2023-07-09T14:13:40;30.90;59.70
6377;DHT22;3221;48.858;10.128;2023-07-09T14:16:11;31.00;58.90
6377;DHT22;3221;48.858;10.128;2023-07-09T14:18:39;31.10;58.70
6377;DHT22;3221;48.858;10.128;2023-07-09T14:21:17;31.10;58.90
6377;DHT22;3221;48.858;10.128;2023-07-09T14:23:45;31.10;58.70
6377;DHT22;3221;48.858;10.128;2023-07-09T14:26:11;31.20;57.40
6377;DHT22;3221;48.858;10.128;2023-07-09T14:28:38;31.20;59.40
6377;DHT22;3221;48.858;10.128;2023-07-09T14:31:20;31.10;58.20
6377;DHT22;3221;48.858;10.128;2023-07-09T14:33:48;31.10;58.40
6377;DHT22;3221;48.858;10.128;2023-07-09T14:36:15;31.20;59.00
6377;DHT22;3221;48.858;10.128;2023-07-09T14:38:43;31.20;58.00
6377;DHT22;3221;48.858;10.128;2023-07-09T14:41:30;31.10;57.20
6377;DHT22;3221;48.858;10.128;2023-07-09T14:43:58;31.00;56.80
6377;DHT22;3221;48.858;10.128;2023-07-09T14:46:25;31.00;56.40
6377;DHT22;3221;48.858;10.128;2023-07-09T14:48:52;30.90;56.90
6377;DHT22;3221;48.858;10.128;2023-07-09T14:51:19;30.90;55.70
6377;DHT22;3221;48.858;10.128;2023-07-09T14:53:46;30.80;56.70
6377;DHT22;3221;48.858;10.128;2023-07-09T14:56:14;30.80;56.30
6377;DHT22;3221;48.858;10.128;2023-07-09T14:58:41;30.80;58.40
6377;DHT22;3221;48.858;10.128;2023-07-09T15:01:14;30.70;59.10
6377;DHT22;3221;48.858;10.128;2023-07-09T15:03:42;30.80;56.80
6377;DHT22;3221;48.858;10.128;2023-07-09T15:06:09;31.00;57.40
6377;DHT22;3221;48.858;10.128;2023-07-09T15:08:36;31.00;56.60
6377;DHT22;3221;48.858;10.128;2023-07-09T15:11:04;31.00;56.40
6377;DHT22;3221;48.858;10.128;2023-07-09T15:13:34;31.00;55.30
6377;DHT22;3221;48.858;10.128;2023-07-09T15:16:03;31.00;55.70
6377;DHT22;3221;48.858;10.128;2023-07-09T15:18:30;31.00;56.40
6377;DHT22;3221;48.858;10.128;2023-07-09T15:21:01;31.00;56.90
6377;DHT22;3221;48.858;10.128;2023-07-09T15:23:29;31.00;56.60
6377;DHT22;3221;48.858;10.128;2023-07-09T15:25:57;31.00;56.60
6377;DHT22;3221;48.858;10.128;2023-07-09T15:28:24;31.10;55.80
6377;DHT22;3221;48.858;10.128;2023-07-09T15:30:51;31.00;54.40
6377;DHT22;3221;48.858;10.128;2023-07-09T15:33:19;31.00;55.30
6377;DHT22;3221;48.858;10.128;2023-07-09T15:35:48;30.90;56.30
6377;DHT22;3221;48.858;10.128;2023-07-09T15:40:46;30.80;56.80
6377;DHT22;3221;48.858;10.128;2023-07-09T15:43:14;30.70;57.00
6377;DHT22;3221;48.858;10.128;2023-07-09T15:45:45;30.70;55.50
6377;DHT22;3221;48.858;10.128;2023-07-09T15:48:27;30.60;56.30
6377;DHT22;3221;48.858;10.128;2023-07-09T15:50:56;30.60;56.50
6377;DHT22;3221;48.858;10.128;2023-07-09T15:53:25;30.60;56.70
6377;DHT22;3221;48.858;10.128;2023-07-09T15:55:58;30.60;55.40
6377;DHT22;3221;48.858;10.128;2023-07-09T15:58:28;30.50;54.80
6377;DHT22;3221;48.858;10.128;2023-07-09T16:00:56;30.40;55.90
6377;DHT22;3221;48.858;10.128;2023-07-09T16:03:23;30.40;55.50
6377;DHT22;3221;48.858;10.128;2023-07-09T16:05:50;30.40;56.00
6377;DHT22;3221;48.858;10.128;2023-07-09T16:08:17;30.40;55.70
6377;DHT22;3221;48.858;10.128;2023-07-09T16:10:44;30.40;55.90
6377;DHT22;3221;48.858;10.128;2023-07-09T16:13:18;30.30;54.80
6377;DHT22;3221;48.858;10.128;2023-07-09T16:15:46;30.30;55.20
6377;DHT22;3221;48.858;10.128;2023-07-09T16:18:13;30.30;55.30
6377;DHT22;3221;48.858;10.128;2023-07-09T16:20:42;30.30;54.80
6377;DHT22;3221;48.858;10.128;2023-07-09T16:23:18;30.20;54.60
6377;DHT22;3221;48.858;10.128;2023-07-09T16:25:47;30.10;55.50
6377;DHT22;3221;48.858;10.128;2023-07-09T16:28:16;30.10;55.80
6377;DHT22;3221;48.858;10.128;2023-07-09T16:30:45;30.10;55.60
6377;DHT22;3221;48.858;10.128;2023-07-09T16:33:13;30.00;54.40
6377;DHT22;3221;48.858;10.128;2023-07-09T16:35:40;29.90;55.40
6377;DHT22;3221;48.858;10.128;2023-07-09T16:38:11;30.00;54.30
6377;DHT22;3221;48.858;10.128;2023-07-09T16:40:38;30.00;55.40
6377;DHT22;3221;48.858;10.128;2023-07-09T16:43:16;30.00;53.90
6377;DHT22;3221;48.858;10.128;2023-07-09T16:45:44;30.00;53.10
6377;DHT22;3221;48.858;10.128;2023-07-09T16:48:18;30.00;53.80
6377;DHT22;3221;48.858;10.128;2023-07-09T16:50:52;29.90;54.00